sensor_id;sensor_type;location;lat;lon;timestamp;P1;durP1;ratioP1;P2;durP2;ratioP2
21120;SDS011;12519;43.318;21.898;2022-12-07T00:02:03;24.0;;;17.0;;
21120;SDS011;12519;43.318;21.898;2022-12-07T00:06:41;22.0;;;17.0;;
21120;SDS011;12519;43.318;21.898;2022-12-07T00:11:22;22.0;;;17.0;;
21120;SDS011;12519;43.318;21.898;2022-12-07T00:16:01;22.0;;;17.0;;
21120;SDS011;12519;43.318;21.898;2022-12-07T00:20:40;26.0;;;17.0;;
21120;SDS011;12519;43.318;21.898;2022-12-07T00:25:17;26.0;;;17.0;;
21120;SDS011;12519;43.318;21.898;2022-12-07T00:29:53;31.0;;;17.0;;
21120;SDS011;12519;43.318;21.898;2022-12-07T00:34:29;31.0;;;17.0;;
21120;SDS011;12519;43.318;21.898;2022-12-07T00:39:05;25.0;;;16.0;;
21120;SDS011;12519;43.318;21.898;2022-12-07T00:43:44;25.0;;;16.0;;
21120;SDS011;12519;43.318;21.898;2022-12-07T00:48:23;19.0;;;16.0;;
21120;SDS011;12519;43.318;21.898;2022-12-07T00:53:00;19.0;;;16.0;;
21120;SDS011;12519;43.318;21.898;2022-12-07T00:57:36;19.0;;;16.0;;
21120;SDS011;12519;43.318;21.898;2022-12-07T01:02:12;19.0;;;16.0;;
21120;SDS011;12519;43.318;21.898;2022-12-07T01:06:48;19.0;;;15.0;;
21120;SDS011;12519;43.318;21.898;2022-12-07T01:11:28;19.0;;;15.0;;
21120;SDS011;12519;43.318;21.898;2022-12-07T01:16:09;19.0;;;15.0;;
21120;SDS011;12519;43.318;21.898;2022-12-07T01:20:58;20.0;;;16.0;;
21120;SDS011;12519;43.318;21.898;2022-12-07T01:25:41;20.0;;;16.0;;
21120;SDS011;12519;43.318;21.898;2022-12-07T01:30:17;22.0;;;17.0;;
21120;SDS011;12519;43.318;21.898;2022-12-07T01:34:54;22.0;;;17.0;;
21120;SDS011;12519;43.318;21.898;2022-12-07T01:39:30;22.0;;;17.0;;
21120;SDS011;12519;43.318;21.898;2022-12-07T01:44:19;22.0;;;17.0;;
21120;SDS011;12519;43.318;21.898;2022-12-07T01:48:59;22.0;;;17.0;;
21120;SDS011;12519;43.318;21.898;2022-12-07T01:53:41;22.0;;;17.0;;
21120;SDS011;12519;43.318;21.898;2022-12-07T01:58:19;24.0;;;16.0;;
21120;SDS011;12519;43.318;21.898;2022-12-07T02:03:04;24.0;;;16.0;;
21120;SDS011;12519;43.318;21.898;2022-12-07T02:07:42;25.0;;;16.0;;
21120;SDS011;12519;43.318;21.898;2022-12-07T02:12:19;25.0;;;16.0;;
21120;SDS011;12519;43.318;21.898;2022-12-07T02:17:08;20.0;;;16.0;;
21120;SDS011;12519;43.318;21.898;2022-12-07T02:22:18;20.0;;;16.0;;
21120;SDS011;12519;43.318;21.898;2022-12-07T02:27:45;16.0;;;15.0;;
21120;SDS011;12519;43.318;21.898;2022-12-07T02:32:42;16.0;;;15.0;;
21120;SDS011;12519;43.318;21.898;2022-12-07T02:37:39;18.0;;;16.0;;
21120;SDS011;12519;43.318;21.898;2022-12-07T02:42:40;18.0;;;16.0;;
21120;SDS011;12519;43.318;21.898;2022-12-07T02:47:28;19.0;;;16.0;;
21120;SDS011;12519;43.318;21.898;2022-12-07T02:52:09;19.0;;;16.0;;
21120;SDS011;12519;43.318;21.898;2022-12-07T02:56:50;17.0;;;15.0;;
21120;SDS011;12519;43.318;21.898;2022-12-07T03:01:50;17.0;;;15.0;;
21120;SDS011;12519;43.318;21.898;2022-12-07T03:06:56;15.0;;;14.0;;
21120;SDS011;12519;43.318;21.898;2022-12-07T03:11:50;15.0;;;14.0;;
21120;SDS011;12519;43.318;21.898;2022-12-07T03:16:52;18.0;;;14.0;;
21120;SDS011;12519;43.318;21.898;2022-12-07T03:21:42;18.0;;;14.0;;
21120;SDS011;12519;43.318;21.898;2022-12-07T03:26:34;18.0;;;14.0;;
21120;SDS011;12519;43.318;21.898;2022-12-07T03:31:22;22.0;;;14.0;;
21120;SDS011;12519;43.318;21.898;2022-12-07T03:36:15;22.0;;;14.0;;
21120;SDS011;12519;43.318;21.898;2022-12-07T03:41:10;20.0;;;15.0;;
21120;SDS011;12519;43.318;21.898;2022-12-07T03:46:15;20.0;;;15.0;;
21120;SDS011;12519;43.318;21.898;2022-12-07T03:51:20;18.0;;;16.0;;
21120;SDS011;12519;43.318;21.898;2022-12-07T03:56:19;18.0;;;16.0;;
21120;SDS011;12519;43.318;21.898;2022-12-07T04:00:59;20.0;;;16.0;;
21120;SDS011;12519;43.318;21.898;2022-12-07T04:05:38;20.0;;;16.0;;
21120;SDS011;12519;43.318;21.898;2022-12-07T04:10:18;22.0;;;15.0;;
21120;SDS011;12519;43.318;21.898;2022-12-07T04:14:55;22.0;;;15.0;;
21120;SDS011;12519;43.318;21.898;2022-12-07T04:19:33;21.0;;;16.0;;
21120;SDS011;12519;43.318;21.898;2022-12-07T04:24:12;21.0;;;16.0;;
21120;SDS011;12519;43.318;21.898;2022-12-07T04:28:51;20.0;;;16.0;;
21120;SDS011;12519;43.318;21.898;2022-12-07T04:33:27;20.0;;;16.0;;
21120;SDS011;12519;43.318;21.898;2022-12-07T04:38:02;20.0;;;15.0;;
21120;SDS011;12519;43.318;21.898;2022-12-07T04:42:38;20.0;;;15.0;;
21120;SDS011;12519;43.318;21.898;2022-12-07T04:47:14;19.0;;;14.0;;
21120;SDS011;12519;43.318;21.898;2022-12-07T04:51:51;19.0;;;14.0;;
21120;SDS011;12519;43.318;21.898;2022-12-07T04:56:27;19.0;;;14.0;;
21120;SDS011;12519;43.318;21.898;2022-12-07T05:01:03;21.0;;;14.0;;
21120;SDS011;12519;43.318;21.898;2022-12-07T05:05:40;21.0;;;14.0;;
21120;SDS011;12519;43.318;21.898;2022-12-07T05:10:17;23.0;;;14.0;;
21120;SDS011;12519;43.318;21.898;2022-12-07T05:14:53;23.0;;;14.0;;
21120;SDS011;12519;43.318;21.898;2022-12-07T05:19:29;18.0;;;14.0;;
21120;SDS011;12519;43.318;21.898;2022-12-07T05:24:08;18.0;;;14.0;;
21120;SDS011;12519;43.318;21.898;2022-12-07T05:28:51;14.0;;;13.0;;
21120;SDS011;12519;43.318;21.898;2022-12-07T05:33:27;14.0;;;13.0;;
21120;SDS011;12519;43.318;21.898;2022-12-07T05:38:03;18.0;;;16.0;;
21120;SDS011;12519;43.318;21.898;2022-12-07T05:42:40;18.0;;;16.0;;
21120;SDS011;12519;43.318;21.898;2022-12-07T05:47:17;23.0;;;19.0;;
21120;SDS011;12519;43.318;21.898;2022-12-07T05:51:54;23.0;;;19.0;;
21120;SDS011;12519;43.318;21.898;2022-12-07T05:56:30;23.0;;;19.0;;
21120;SDS011;12519;43.318;21.898;2022-12-07T06:01:06;24.0;;;18.0;;
21120;SDS011;12519;43.318;21.898;2022-12-07T06:05:42;24.0;;;18.0;;
21120;SDS011;12519;43.318;21.898;2022-12-07T06:10:18;26.0;;;18.0;;
21120;SDS011;12519;43.318;21.898;2022-12-07T06:14:54;26.0;;;18.0;;
21120;SDS011;12519;43.318;21.898;2022-12-07T06:19:31;26.0;;;18.0;;
21120;SDS011;12519;43.318;21.898;2022-12-07T06:24:08;26.0;;;18.0;;
21120;SDS011;12519;43.318;21.898;2022-12-07T06:28:48;25.0;;;18.0;;
21120;SDS011;12519;43.318;21.898;2022-12-07T06:33:25;25.0;;;18.0;;
21120;SDS011;12519;43.318;21.898;2022-12-07T06:38:02;28.0;;;20.0;;
21120;SDS011;12519;43.318;21.898;2022-12-07T06:42:38;28.0;;;20.0;;
21120;SDS011;12519;43.318;21.898;2022-12-07T06:47:14;30.0;;;22.0;;
21120;SDS011;12519;43.318;21.898;2022-12-07T06:51:50;30.0;;;22.0;;
21120;SDS011;12519;43.318;21.898;2022-12-07T06:56:26;30.0;;;22.0;;
21120;SDS011;12519;43.318;21.898;2022-12-07T07:01:02;26.0;;;21.0;;
21120;SDS011;12519;43.318;21.898;2022-12-07T07:05:43;26.0;;;21.0;;
21120;SDS011;12519;43.318;21.898;2022-12-07T07:10:19;23.0;;;20.0;;
21120;SDS011;12519;43.318;21.898;2022-12-07T07:14:55;23.0;;;20.0;;
21120;SDS011;12519;43.318;21.898;2022-12-07T07:19:31;24.0;;;22.0;;
21120;SDS011;12519;43.318;21.898;2022-12-07T07:24:07;24.0;;;22.0;;
21120;SDS011;12519;43.318;21.898;2022-12-07T07:28:43;26.0;;;23.0;;
21120;SDS011;12519;43.318;21.898;2022-12-07T07:33:19;26.0;;;23.0;;
21120;SDS011;12519;43.318;21.898;2022-12-07T07:37:54;30.0;;;22.0;;
21120;SDS011;12519;43.318;21.898;2022-12-07T07:42:31;30.0;;;22.0;;
21120;SDS011;12519;43.318;21.898;2022-12-07T07:47:07;30.0;;;22.0;;
21120;SDS011;12519;43.318;21.898;2022-12-07T07:51:43;34.0;;;21.0;;
21120;SDS011;12519;43.318;21.898;2022-12-07T07:56:19;34.0;;;21.0;;
21120;SDS011;12519;43.318;21.898;2022-12-07T08:00:55;27.0;;;19.0;;
21120;SDS011;12519;43.318;21.898;2022-12-07T08:05:31;27.0;;;19.0;;
21120;SDS011;12519;43.318;21.898;2022-12-07T08:10:12;20.0;;;17.0;;
21120;SDS011;12519;43.318;21.898;2022-12-07T08:14:49;20.0;;;17.0;;
21120;SDS011;12519;43.318;21.898;2022-12-07T08:19:25;20.0;;;16.0;;
21120;SDS011;12519;43.318;21.898;2022-12-07T08:24:02;20.0;;;16.0;;
21120;SDS011;12519;43.318;21.898;2022-12-07T08:28:39;20.0;;;16.0;;
21120;SDS011;12519;43.318;21.898;2022-12-07T08:33:16;20.0;;;16.0;;
21120;SDS011;12519;43.318;21.898;2022-12-07T08:37:52;22.0;;;18.0;;
21120;SDS011;12519;43.318;21.898;2022-12-07T08:42:28;22.0;;;18.0;;
21120;SDS011;12519;43.318;21.898;2022-12-07T08:47:06;22.0;;;18.0;;
21120;SDS011;12519;43.318;21.898;2022-12-07T08:51:46;24.0;;;20.0;;
21120;SDS011;12519;43.318;21.898;2022-12-07T08:56:23;24.0;;;20.0;;
21120;SDS011;12519;43.318;21.898;2022-12-07T09:01:01;21.0;;;18.0;;
21120;SDS011;12519;43.318;21.898;2022-12-07T09:05:39;21.0;;;18.0;;
21120;SDS011;12519;43.318;21.898;2022-12-07T09:10:16;18.0;;;17.0;;
21120;SDS011;12519;43.318;21.898;2022-12-07T09:14:54;18.0;;;17.0;;
21120;SDS011;12519;43.318;21.898;2022-12-07T09:19:31;26.0;;;20.0;;
21120;SDS011;12519;43.318;21.898;2022-12-07T09:24:07;26.0;;;20.0;;
21120;SDS011;12519;43.318;21.898;2022-12-07T09:28:44;35.0;;;24.0;;
21120;SDS011;12519;43.318;21.898;2022-12-07T09:33:20;35.0;;;24.0;;
21120;SDS011;12519;43.318;21.898;2022-12-07T09:37:56;30.0;;;21.0;;
21120;SDS011;12519;43.318;21.898;2022-12-07T09:42:36;30.0;;;21.0;;
21120;SDS011;12519;43.318;21.898;2022-12-07T09:47:15;30.0;;;21.0;;
21120;SDS011;12519;43.318;21.898;2022-12-07T09:52:01;24.0;;;18.0;;
21120;SDS011;12519;43.318;21.898;2022-12-07T09:56:51;24.0;;;18.0;;
21120;SDS011;12519;43.318;21.898;2022-12-07T10:01:30;22.0;;;18.0;;
21120;SDS011;12519;43.318;21.898;2022-12-07T10:06:10;22.0;;;18.0;;
21120;SDS011;12519;43.318;21.898;2022-12-07T10:10:52;21.0;;;18.0;;
21120;SDS011;12519;43.318;21.898;2022-12-07T10:15:49;21.0;;;18.0;;
21120;SDS011;12519;43.318;21.898;2022-12-07T10:20:27;20.0;;;18.0;;
21120;SDS011;12519;43.318;21.898;2022-12-07T10:25:17;20.0;;;18.0;;
21120;SDS011;12519;43.318;21.898;2022-12-07T10:29:58;20.0;;;18.0;;
21120;SDS011;12519;43.318;21.898;2022-12-07T10:34:37;20.0;;;18.0;;
21120;SDS011;12519;43.318;21.898;2022-12-07T10:39:18;27.0;;;20.0;;
21120;SDS011;12519;43.318;21.898;2022-12-07T10:43:57;27.0;;;20.0;;
21120;SDS011;12519;43.318;21.898;2022-12-07T10:48:43;34.0;;;21.0;;
21120;SDS011;12519;43.318;21.898;2022-12-07T10:53:52;34.0;;;21.0;;
21120;SDS011;12519;43.318;21.898;2022-12-07T10:59:10;27.0;;;18.0;;
21120;SDS011;12519;43.318;21.898;2022-12-07T11:04:29;27.0;;;18.0;;
21120;SDS011;12519;43.318;21.898;2022-12-07T11:09:42;20.0;;;15.0;;
21120;SDS011;12519;43.318;21.898;2022-12-07T11:14:36;20.0;;;15.0;;
21120;SDS011;12519;43.318;21.898;2022-12-07T11:19:34;16.0;;;14.0;;
21120;SDS011;12519;43.318;21.898;2022-12-07T11:24:28;16.0;;;14.0;;
21120;SDS011;12519;43.318;21.898;2022-12-07T11:29:44;13.0;;;12.0;;
21120;SDS011;12519;43.318;21.898;2022-12-07T11:35:02;13.0;;;12.0;;
21120;SDS011;12519;43.318;21.898;2022-12-07T11:39:55;14.0;;;12.0;;
21120;SDS011;12519;43.318;21.898;2022-12-07T11:44:53;14.0;;;12.0;;
21120;SDS011;12519;43.318;21.898;2022-12-07T11:49:54;16.0;;;12.0;;
21120;SDS011;12519;43.318;21.898;2022-12-07T11:55:16;16.0;;;12.0;;
21120;SDS011;12519;43.318;21.898;2022-12-07T12:00:12;16.0;;;12.0;;
21120;SDS011;12519;43.318;21.898;2022-12-07T12:04:59;16.0;;;12.0;;
21120;SDS011;12519;43.318;21.898;2022-12-07T12:09:55;16.0;;;13.0;;
21120;SDS011;12519;43.318;21.898;2022-12-07T12:14:52;16.0;;;13.0;;
21120;SDS011;12519;43.318;21.898;2022-12-07T12:20:02;44.0;;;34.0;;
21120;SDS011;12519;43.318;21.898;2022-12-07T12:24:56;44.0;;;34.0;;
21120;SDS011;12519;43.318;21.898;2022-12-07T12:29:36;71.0;;;56.0;;
21120;SDS011;12519;43.318;21.898;2022-12-07T12:34:33;71.0;;;56.0;;
21120;SDS011;12519;43.318;21.898;2022-12-07T12:39:17;50.0;;;40.0;;
21120;SDS011;12519;43.318;21.898;2022-12-07T12:43:54;50.0;;;40.0;;
21120;SDS011;12519;43.318;21.898;2022-12-07T12:48:35;28.0;;;24.0;;
21120;SDS011;12519;43.318;21.898;2022-12-07T12:53:20;28.0;;;24.0;;
21120;SDS011;12519;43.318;21.898;2022-12-07T12:58:35;24.0;;;19.0;;
21120;SDS011;12519;43.318;21.898;2022-12-07T13:03:27;24.0;;;19.0;;
21120;SDS011;12519;43.318;21.898;2022-12-07T13:08:17;20.0;;;14.0;;
21120;SDS011;12519;43.318;21.898;2022-12-07T13:13:08;20.0;;;14.0;;
21120;SDS011;12519;43.318;21.898;2022-12-07T13:18:35;90.0;;;66.0;;
21120;SDS011;12519;43.318;21.898;2022-12-07T13:23:18;90.0;;;66.0;;
21120;SDS011;12519;43.318;21.898;2022-12-07T13:28:13;161.0;;;119.0;;
21120;SDS011;12519;43.318;21.898;2022-12-07T13:32:56;161.0;;;119.0;;
21120;SDS011;12519;43.318;21.898;2022-12-07T13:37:35;161.0;;;119.0;;
21120;SDS011;12519;43.318;21.898;2022-12-07T13:42:21;108.0;;;78.0;;
21120;SDS011;12519;43.318;21.898;2022-12-07T13:47:14;108.0;;;78.0;;
21120;SDS011;12519;43.318;21.898;2022-12-07T13:52:16;54.0;;;36.0;;
21120;SDS011;12519;43.318;21.898;2022-12-07T13:56:56;54.0;;;36.0;;
21120;SDS011;12519;43.318;21.898;2022-12-07T14:01:32;47.0;;;32.0;;
21120;SDS011;12519;43.318;21.898;2022-12-07T14:06:24;47.0;;;32.0;;
21120;SDS011;12519;43.318;21.898;2022-12-07T14:11:02;40.0;;;29.0;;
21120;SDS011;12519;43.318;21.898;2022-12-07T14:15:39;40.0;;;29.0;;
21120;SDS011;12519;43.318;21.898;2022-12-07T14:20:30;32.0;;;24.0;;
21120;SDS011;12519;43.318;21.898;2022-12-07T14:25:19;32.0;;;24.0;;
21120;SDS011;12519;43.318;21.898;2022-12-07T14:29:59;23.0;;;19.0;;
21120;SDS011;12519;43.318;21.898;2022-12-07T14:34:37;23.0;;;19.0;;
21120;SDS011;12519;43.318;21.898;2022-12-07T14:39:13;26.0;;;22.0;;
21120;SDS011;12519;43.318;21.898;2022-12-07T14:43:49;26.0;;;22.0;;
21120;SDS011;12519;43.318;21.898;2022-12-07T14:48:25;28.0;;;24.0;;
21120;SDS011;12519;43.318;21.898;2022-12-07T14:53:11;28.0;;;24.0;;
21120;SDS011;12519;43.318;21.898;2022-12-07T14:57:52;28.0;;;24.0;;
21120;SDS011;12519;43.318;21.898;2022-12-07T15:02:30;24.0;;;20.0;;
21120;SDS011;12519;43.318;21.898;2022-12-07T15:07:15;24.0;;;20.0;;
21120;SDS011;12519;43.318;21.898;2022-12-07T15:11:54;21.0;;;17.0;;
21120;SDS011;12519;43.318;21.898;2022-12-07T15:16:30;21.0;;;17.0;;
21120;SDS011;12519;43.318;21.898;2022-12-07T15:21:12;27.0;;;22.0;;
21120;SDS011;12519;43.318;21.898;2022-12-07T15:25:49;27.0;;;22.0;;
21120;SDS011;12519;43.318;21.898;2022-12-07T15:30:25;33.0;;;26.0;;
21120;SDS011;12519;43.318;21.898;2022-12-07T15:35:01;33.0;;;26.0;;
21120;SDS011;12519;43.318;21.898;2022-12-07T15:39:37;32.0;;;26.0;;
21120;SDS011;12519;43.318;21.898;2022-12-07T15:44:14;32.0;;;26.0;;
21120;SDS011;12519;43.318;21.898;2022-12-07T15:48:51;31.0;;;25.0;;
21120;SDS011;12519;43.318;21.898;2022-12-07T15:53:27;31.0;;;25.0;;
21120;SDS011;12519;43.318;21.898;2022-12-07T15:58:03;31.0;;;25.0;;
21120;SDS011;12519;43.318;21.898;2022-12-07T16:02:39;30.0;;;26.0;;
21120;SDS011;12519;43.318;21.898;2022-12-07T16:07:15;30.0;;;26.0;;
21120;SDS011;12519;43.318;21.898;2022-12-07T16:11:52;29.0;;;26.0;;
21120;SDS011;12519;43.318;21.898;2022-12-07T16:16:28;29.0;;;26.0;;
21120;SDS011;12519;43.318;21.898;2022-12-07T16:21:05;24.0;;;22.0;;
21120;SDS011;12519;43.318;21.898;2022-12-07T16:25:41;24.0;;;22.0;;
21120;SDS011;12519;43.318;21.898;2022-12-07T16:30:18;20.0;;;19.0;;
21120;SDS011;12519;43.318;21.898;2022-12-07T16:34:54;20.0;;;19.0;;
21120;SDS011;12519;43.318;21.898;2022-12-07T16:39:30;31.0;;;24.0;;
21120;SDS011;12519;43.318;21.898;2022-12-07T16:44:12;31.0;;;24.0;;
21120;SDS011;12519;43.318;21.898;2022-12-07T16:48:49;42.0;;;29.0;;
21120;SDS011;12519;43.318;21.898;2022-12-07T16:53:25;42.0;;;29.0;;
21120;SDS011;12519;43.318;21.898;2022-12-07T16:58:01;42.0;;;29.0;;
21120;SDS011;12519;43.318;21.898;2022-12-07T17:02:37;40.0;;;30.0;;
21120;SDS011;12519;43.318;21.898;2022-12-07T17:07:14;40.0;;;30.0;;
21120;SDS011;12519;43.318;21.898;2022-12-07T17:11:50;39.0;;;32.0;;
21120;SDS011;12519;43.318;21.898;2022-12-07T17:16:27;39.0;;;32.0;;
21120;SDS011;12519;43.318;21.898;2022-12-07T17:21:08;36.0;;;28.0;;
21120;SDS011;12519;43.318;21.898;2022-12-07T17:25:45;36.0;;;28.0;;
21120;SDS011;12519;43.318;21.898;2022-12-07T17:30:22;33.0;;;25.0;;
21120;SDS011;12519;43.318;21.898;2022-12-07T17:34:59;33.0;;;25.0;;
21120;SDS011;12519;43.318;21.898;2022-12-07T17:39:35;36.0;;;29.0;;
21120;SDS011;12519;43.318;21.898;2022-12-07T17:44:13;36.0;;;29.0;;
21120;SDS011;12519;43.318;21.898;2022-12-07T17:48:53;40.0;;;33.0;;
21120;SDS011;12519;43.318;21.898;2022-12-07T17:53:29;40.0;;;33.0;;
21120;SDS011;12519;43.318;21.898;2022-12-07T17:58:05;40.0;;;33.0;;
21120;SDS011;12519;43.318;21.898;2022-12-07T18:02:41;43.0;;;35.0;;
21120;SDS011;12519;43.318;21.898;2022-12-07T18:07:17;43.0;;;35.0;;
21120;SDS011;12519;43.318;21.898;2022-12-07T18:11:53;46.0;;;37.0;;
21120;SDS011;12519;43.318;21.898;2022-12-07T18:16:30;46.0;;;37.0;;
21120;SDS011;12519;43.318;21.898;2022-12-07T18:21:11;43.0;;;32.0;;
21120;SDS011;12519;43.318;21.898;2022-12-07T18:25:48;43.0;;;32.0;;
21120;SDS011;12519;43.318;21.898;2022-12-07T18:30:25;40.0;;;28.0;;
21120;SDS011;12519;43.318;21.898;2022-12-07T18:35:00;40.0;;;28.0;;
21120;SDS011;12519;43.318;21.898;2022-12-07T18:39:36;37.0;;;27.0;;
21120;SDS011;12519;43.318;21.898;2022-12-07T18:44:12;37.0;;;27.0;;
21120;SDS011;12519;43.318;21.898;2022-12-07T18:48:48;34.0;;;26.0;;
21120;SDS011;12519;43.318;21.898;2022-12-07T18:53:24;34.0;;;26.0;;
21120;SDS011;12519;43.318;21.898;2022-12-07T18:58:01;34.0;;;26.0;;
21120;SDS011;12519;43.318;21.898;2022-12-07T19:02:37;32.0;;;24.0;;
21120;SDS011;12519;43.318;21.898;2022-12-07T19:07:12;32.0;;;24.0;;
21120;SDS011;12519;43.318;21.898;2022-12-07T19:11:49;29.0;;;23.0;;
21120;SDS011;12519;43.318;21.898;2022-12-07T19:16:25;29.0;;;23.0;;
21120;SDS011;12519;43.318;21.898;2022-12-07T19:21:02;29.0;;;22.0;;
21120;SDS011;12519;43.318;21.898;2022-12-07T19:25:39;29.0;;;22.0;;
21120;SDS011;12519;43.318;21.898;2022-12-07T19:30:15;29.0;;;22.0;;
21120;SDS011;12519;43.318;21.898;2022-12-07T19:34:52;29.0;;;22.0;;
21120;SDS011;12519;43.318;21.898;2022-12-07T19:39:28;32.0;;;24.0;;
21120;SDS011;12519;43.318;21.898;2022-12-07T19:44:09;32.0;;;24.0;;
21120;SDS011;12519;43.318;21.898;2022-12-07T19:48:50;36.0;;;25.0;;
21120;SDS011;12519;43.318;21.898;2022-12-07T19:53:26;36.0;;;25.0;;
21120;SDS011;12519;43.318;21.898;2022-12-07T19:58:02;36.0;;;25.0;;
21120;SDS011;12519;43.318;21.898;2022-12-07T20:02:38;35.0;;;24.0;;
21120;SDS011;12519;43.318;21.898;2022-12-07T20:07:14;35.0;;;24.0;;
21120;SDS011;12519;43.318;21.898;2022-12-07T20:11:51;34.0;;;22.0;;
21120;SDS011;12519;43.318;21.898;2022-12-07T20:16:27;34.0;;;22.0;;
21120;SDS011;12519;43.318;21.898;2022-12-07T20:21:03;29.0;;;21.0;;
21120;SDS011;12519;43.318;21.898;2022-12-07T20:25:39;29.0;;;21.0;;
21120;SDS011;12519;43.318;21.898;2022-12-07T20:30:15;24.0;;;20.0;;
21120;SDS011;12519;43.318;21.898;2022-12-07T20:34:51;24.0;;;20.0;;
21120;SDS011;12519;43.318;21.898;2022-12-07T20:39:27;24.0;;;20.0;;
21120;SDS011;12519;43.318;21.898;2022-12-07T20:44:04;24.0;;;20.0;;
21120;SDS011;12519;43.318;21.898;2022-12-07T20:48:40;24.0;;;20.0;;
21120;SDS011;12519;43.318;21.898;2022-12-07T20:53:16;23.0;;;19.0;;
21120;SDS011;12519;43.318;21.898;2022-12-07T20:57:52;23.0;;;19.0;;
21120;SDS011;12519;43.318;21.898;2022-12-07T21:02:28;26.0;;;20.0;;
21120;SDS011;12519;43.318;21.898;2022-12-07T21:07:03;26.0;;;20.0;;
21120;SDS011;12519;43.318;21.898;2022-12-07T21:11:39;29.0;;;20.0;;
21120;SDS011;12519;43.318;21.898;2022-12-07T21:16:18;29.0;;;20.0;;
21120;SDS011;12519;43.318;21.898;2022-12-07T21:21:00;25.0;;;18.0;;
21120;SDS011;12519;43.318;21.898;2022-12-07T21:25:37;25.0;;;18.0;;
21120;SDS011;12519;43.318;21.898;2022-12-07T21:30:13;21.0;;;15.0;;
21120;SDS011;12519;43.318;21.898;2022-12-07T21:34:49;21.0;;;15.0;;
21120;SDS011;12519;43.318;21.898;2022-12-07T21:39:25;20.0;;;13.0;;
21120;SDS011;12519;43.318;21.898;2022-12-07T21:44:06;20.0;;;13.0;;
21120;SDS011;12519;43.318;21.898;2022-12-07T21:48:48;20.0;;;13.0;;
21120;SDS011;12519;43.318;21.898;2022-12-07T21:53:26;18.0;;;11.0;;
21120;SDS011;12519;43.318;21.898;2022-12-07T21:58:02;18.0;;;11.0;;
21120;SDS011;12519;43.318;21.898;2022-12-07T22:02:37;18.0;;;12.0;;
21120;SDS011;12519;43.318;21.898;2022-12-07T22:07:13;18.0;;;12.0;;
21120;SDS011;12519;43.318;21.898;2022-12-07T22:11:50;17.0;;;13.0;;
21120;SDS011;12519;43.318;21.898;2022-12-07T22:16:27;17.0;;;13.0;;
21120;SDS011;12519;43.318;21.898;2022-12-07T22:21:04;26.0;;;22.0;;
21120;SDS011;12519;43.318;21.898;2022-12-07T22:25:40;26.0;;;22.0;;
21120;SDS011;12519;43.318;21.898;2022-12-07T22:30:16;34.0;;;30.0;;
21120;SDS011;12519;43.318;21.898;2022-12-07T22:34:53;34.0;;;30.0;;
21120;SDS011;12519;43.318;21.898;2022-12-07T22:39:29;24.0;;;22.0;;
21120;SDS011;12519;43.318;21.898;2022-12-07T22:44:06;24.0;;;22.0;;
21120;SDS011;12519;43.318;21.898;2022-12-07T22:48:44;24.0;;;22.0;;
21120;SDS011;12519;43.318;21.898;2022-12-07T22:53:23;15.0;;;13.0;;
21120;SDS011;12519;43.318;21.898;2022-12-07T22:58:00;15.0;;;13.0;;
21120;SDS011;12519;43.318;21.898;2022-12-07T23:02:38;14.0;;;12.0;;
21120;SDS011;12519;43.318;21.898;2022-12-07T23:07:14;14.0;;;12.0;;
21120;SDS011;12519;43.318;21.898;2022-12-07T23:11:50;12.0;;;10.0;;
21120;SDS011;12519;43.318;21.898;2022-12-07T23:16:26;12.0;;;10.0;;
21120;SDS011;12519;43.318;21.898;2022-12-07T23:21:02;12.0;;;10.0;;
21120;SDS011;12519;43.318;21.898;2022-12-07T23:25:38;12.0;;;10.0;;
21120;SDS011;12519;43.318;21.898;2022-12-07T23:30:14;13.0;;;11.0;;
21120;SDS011;12519;43.318;21.898;2022-12-07T23:34:50;13.0;;;11.0;;
21120;SDS011;12519;43.318;21.898;2022-12-07T23:39:26;12.0;;;10.0;;
21120;SDS011;12519;43.318;21.898;2022-12-07T23:44:02;12.0;;;10.0;;
21120;SDS011;12519;43.318;21.898;2022-12-07T23:48:40;12.0;;;10.0;;
21120;SDS011;12519;43.318;21.898;2022-12-07T23:53:17;10.0;;;10.0;;
21120;SDS011;12519;43.318;21.898;2022-12-07T23:57:53;10.0;;;10.0;;
